sensor_id;sensor_type;location;lat;lon;timestamp;temperature;humidity
8715;DHT22;4394;51.208;8.904;2023-04-24T00:00:49;12.10;99.90
8715;DHT22;4394;51.208;8.904;2023-04-24T00:03:39;12.10;99.90
8715;DHT22;4394;51.208;8.904;2023-04-24T00:06:28;12.10;99.90
8715;DHT22;4394;51.208;8.904;2023-04-24T00:09:19;12.00;99.90
8715;DHT22;4394;51.208;8.904;2023-04-24T00:12:08;12.00;99.90
8715;DHT22;4394;51.208;8.904;2023-04-24T00:14:56;11.90;99.90
8715;DHT22;4394;51.208;8.904;2023-04-24T00:17:46;12.00;99.90
8715;DHT22;4394;51.208;8.904;2023-04-24T00:20:34;12.00;99.90
8715;DHT22;4394;51.208;8.904;2023-04-24T00:23:23;11.90;99.90
8715;DHT22;4394;51.208;8.904;2023-04-24T00:26:11;11.90;99.90
8715;DHT22;4394;51.208;8.904;2023-04-24T00:28:59;11.90;99.90
8715;DHT22;4394;51.208;8.904;2023-04-24T00:31:47;11.90;99.90
8715;DHT22;4394;51.208;8.904;2023-04-24T00:34:37;11.90;99.90
8715;DHT22;4394;51.208;8.904;2023-04-24T00:37:25;11.90;99.90
8715;DHT22;4394;51.208;8.904;2023-04-24T00:40:13;11.90;99.90
8715;DHT22;4394;51.208;8.904;2023-04-24T00:43:01;11.90;99.90
8715;DHT22;4394;51.208;8.904;2023-04-24T00:45:50;11.90;99.90
8715;DHT22;4394;51.208;8.904;2023-04-24T00:48:39;11.90;99.90
8715;DHT22;4394;51.208;8.904;2023-04-24T00:51:28;11.80;99.90
8715;DHT22;4394;51.208;8.904;2023-04-24T00:54:17;11.90;99.90
8715;DHT22;4394;51.208;8.904;2023-04-24T00:57:05;11.80;99.90
8715;DHT22;4394;51.208;8.904;2023-04-24T00:59:54;11.80;99.90
8715;DHT22;4394;51.208;8.904;2023-04-24T01:02:43;11.80;99.90
8715;DHT22;4394;51.208;8.904;2023-04-24T01:05:32;11.80;99.90
8715;DHT22;4394;51.208;8.904;2023-04-24T01:08:23;11.80;99.90
8715;DHT22;4394;51.208;8.904;2023-04-24T01:11:12;11.80;99.90
8715;DHT22;4394;51.208;8.904;2023-04-24T01:14:01;11.80;99.90
8715;DHT22;4394;51.208;8.904;2023-04-24T01:16:49;11.80;99.90
8715;DHT22;4394;51.208;8.904;2023-04-24T01:19:38;11.70;99.90
8715;DHT22;4394;51.208;8.904;2023-04-24T01:22:28;11.80;99.90
8715;DHT22;4394;51.208;8.904;2023-04-24T01:25:16;11.80;99.90
8715;DHT22;4394;51.208;8.904;2023-04-24T01:28:05;11.80;99.90
8715;DHT22;4394;51.208;8.904;2023-04-24T01:30:54;11.80;99.90
8715;DHT22;4394;51.208;8.904;2023-04-24T01:33:42;11.80;99.90
8715;DHT22;4394;51.208;8.904;2023-04-24T01:36:30;11.80;99.90
8715;DHT22;4394;51.208;8.904;2023-04-24T01:39:21;11.80;99.90
8715;DHT22;4394;51.208;8.904;2023-04-24T01:42:10;11.80;99.90
8715;DHT22;4394;51.208;8.904;2023-04-24T01:44:58;11.80;99.90
8715;DHT22;4394;51.208;8.904;2023-04-24T01:47:47;11.80;99.90
8715;DHT22;4394;51.208;8.904;2023-04-24T01:50:35;11.80;99.90
8715;DHT22;4394;51.208;8.904;2023-04-24T01:53:24;11.80;99.90
8715;DHT22;4394;51.208;8.904;2023-04-24T01:56:14;11.80;99.90
8715;DHT22;4394;51.208;8.904;2023-04-24T01:59:03;11.80;99.90
8715;DHT22;4394;51.208;8.904;2023-04-24T02:01:51;11.80;99.90
8715;DHT22;4394;51.208;8.904;2023-04-24T02:04:39;11.80;99.90
8715;DHT22;4394;51.208;8.904;2023-04-24T02:07:27;11.80;99.90
8715;DHT22;4394;51.208;8.904;2023-04-24T02:10:15;11.80;99.90
8715;DHT22;4394;51.208;8.904;2023-04-24T02:13:05;11.80;99.90
8715;DHT22;4394;51.208;8.904;2023-04-24T02:15:53;11.80;99.90
8715;DHT22;4394;51.208;8.904;2023-04-24T02:18:42;11.80;99.90
8715;DHT22;4394;51.208;8.904;2023-04-24T02:21:30;11.80;99.90
8715;DHT22;4394;51.208;8.904;2023-04-24T02:24:18;11.80;99.90
8715;DHT22;4394;51.208;8.904;2023-04-24T02:27:07;11.80;99.90
8715;DHT22;4394;51.208;8.904;2023-04-24T02:29:56;11.80;99.90
8715;DHT22;4394;51.208;8.904;2023-04-24T02:32:44;11.80;99.90
8715;DHT22;4394;51.208;8.904;2023-04-24T02:35:32;11.80;99.90
8715;DHT22;4394;51.208;8.904;2023-04-24T02:38:21;11.80;99.90
8715;DHT22;4394;51.208;8.904;2023-04-24T02:41:09;11.80;99.90
8715;DHT22;4394;51.208;8.904;2023-04-24T02:43:57;11.70;99.90
8715;DHT22;4394;51.208;8.904;2023-04-24T02:46:47;11.80;99.90
8715;DHT22;4394;51.208;8.904;2023-04-24T02:49:35;11.80;99.90
8715;DHT22;4394;51.208;8.904;2023-04-24T02:52:23;11.70;99.90
8715;DHT22;4394;51.208;8.904;2023-04-24T02:55:11;11.70;99.90
8715;DHT22;4394;51.208;8.904;2023-04-24T02:57:59;11.70;99.90
8715;DHT22;4394;51.208;8.904;2023-04-24T03:00:48;11.70;99.90
8715;DHT22;4394;51.208;8.904;2023-04-24T03:03:37;11.70;99.90
8715;DHT22;4394;51.208;8.904;2023-04-24T03:06:26;11.70;99.90
8715;DHT22;4394;51.208;8.904;2023-04-24T03:09:14;11.70;99.90
8715;DHT22;4394;51.208;8.904;2023-04-24T03:12:03;11.70;99.90
8715;DHT22;4394;51.208;8.904;2023-04-24T03:14:51;11.70;99.90
8715;DHT22;4394;51.208;8.904;2023-04-24T03:17:39;11.70;99.90
8715;DHT22;4394;51.208;8.904;2023-04-24T03:20:29;11.60;99.90
8715;DHT22;4394;51.208;8.904;2023-04-24T03:23:17;11.60;99.90
8715;DHT22;4394;51.208;8.904;2023-04-24T03:26:05;11.50;99.90
8715;DHT22;4394;51.208;8.904;2023-04-24T03:28:53;11.50;99.90
8715;DHT22;4394;51.208;8.904;2023-04-24T03:31:43;11.40;99.90
8715;DHT22;4394;51.208;8.904;2023-04-24T03:34:31;11.40;99.90
8715;DHT22;4394;51.208;8.904;2023-04-24T03:37:21;11.40;99.90
8715;DHT22;4394;51.208;8.904;2023-04-24T03:40:09;11.40;99.90
8715;DHT22;4394;51.208;8.904;2023-04-24T03:42:58;11.30;99.90
8715;DHT22;4394;51.208;8.904;2023-04-24T03:45:46;11.30;99.90
8715;DHT22;4394;51.208;8.904;2023-04-24T03:48:34;11.30;99.90
8715;DHT22;4394;51.208;8.904;2023-04-24T03:51:23;11.20;99.90
8715;DHT22;4394;51.208;8.904;2023-04-24T03:54:12;11.20;99.90
8715;DHT22;4394;51.208;8.904;2023-04-24T03:57:00;11.20;99.90
8715;DHT22;4394;51.208;8.904;2023-04-24T03:59:50;11.20;99.90
8715;DHT22;4394;51.208;8.904;2023-04-24T04:02:40;11.20;99.90
8715;DHT22;4394;51.208;8.904;2023-04-24T04:05:28;11.20;99.90
8715;DHT22;4394;51.208;8.904;2023-04-24T04:08:17;11.20;99.90
8715;DHT22;4394;51.208;8.904;2023-04-24T04:11:07;11.30;99.90
8715;DHT22;4394;51.208;8.904;2023-04-24T04:13:55;11.30;99.90
8715;DHT22;4394;51.208;8.904;2023-04-24T04:16:43;11.30;99.90
8715;DHT22;4394;51.208;8.904;2023-04-24T04:19:32;11.30;99.90
8715;DHT22;4394;51.208;8.904;2023-04-24T04:22:20;11.20;99.90
8715;DHT22;4394;51.208;8.904;2023-04-24T04:25:09;11.20;99.90
8715;DHT22;4394;51.208;8.904;2023-04-24T04:27:59;11.30;99.90
8715;DHT22;4394;51.208;8.904;2023-04-24T04:30:49;11.20;99.90
8715;DHT22;4394;51.208;8.904;2023-04-24T04:33:40;11.20;99.90
8715;DHT22;4394;51.208;8.904;2023-04-24T04:36:28;11.20;99.90
8715;DHT22;4394;51.208;8.904;2023-04-24T04:39:17;11.20;99.90
8715;DHT22;4394;51.208;8.904;2023-04-24T04:42:06;11.10;99.90
8715;DHT22;4394;51.208;8.904;2023-04-24T04:44:56;11.00;99.90
8715;DHT22;4394;51.208;8.904;2023-04-24T04:47:45;10.80;99.90
8715;DHT22;4394;51.208;8.904;2023-04-24T04:50:33;10.60;99.90
8715;DHT22;4394;51.208;8.904;2023-04-24T04:53:22;10.60;99.90
8715;DHT22;4394;51.208;8.904;2023-04-24T04:56:10;10.50;99.90
8715;DHT22;4394;51.208;8.904;2023-04-24T04:58:59;10.50;99.90
8715;DHT22;4394;51.208;8.904;2023-04-24T05:01:48;10.50;99.90
8715;DHT22;4394;51.208;8.904;2023-04-24T05:04:37;10.40;99.90
8715;DHT22;4394;51.208;8.904;2023-04-24T05:07:26;10.40;99.90
8715;DHT22;4394;51.208;8.904;2023-04-24T05:10:14;10.40;99.90
8715;DHT22;4394;51.208;8.904;2023-04-24T05:13:02;10.30;99.90
8715;DHT22;4394;51.208;8.904;2023-04-24T05:15:51;10.30;99.90
8715;DHT22;4394;51.208;8.904;2023-04-24T05:18:40;10.40;99.90
8715;DHT22;4394;51.208;8.904;2023-04-24T05:21:29;10.40;99.90
8715;DHT22;4394;51.208;8.904;2023-04-24T05:24:18;10.30;99.90
8715;DHT22;4394;51.208;8.904;2023-04-24T05:27:06;10.40;99.90
8715;DHT22;4394;51.208;8.904;2023-04-24T05:29:54;10.30;99.90
8715;DHT22;4394;51.208;8.904;2023-04-24T05:32:43;10.20;99.90
8715;DHT22;4394;51.208;8.904;2023-04-24T05:35:33;10.10;99.90
8715;DHT22;4394;51.208;8.904;2023-04-24T05:38:21;10.10;99.90
8715;DHT22;4394;51.208;8.904;2023-04-24T05:41:10;10.00;99.90
8715;DHT22;4394;51.208;8.904;2023-04-24T05:43:58;9.90;99.90
8715;DHT22;4394;51.208;8.904;2023-04-24T05:46:46;9.90;99.90
8715;DHT22;4394;51.208;8.904;2023-04-24T05:49:35;9.90;99.90
8715;DHT22;4394;51.208;8.904;2023-04-24T05:52:24;9.90;99.90
8715;DHT22;4394;51.208;8.904;2023-04-24T05:55:12;9.90;99.90
8715;DHT22;4394;51.208;8.904;2023-04-24T05:58:04;9.90;99.90
8715;DHT22;4394;51.208;8.904;2023-04-24T06:00:52;9.90;99.90
8715;DHT22;4394;51.208;8.904;2023-04-24T06:03:42;9.80;99.90
8715;DHT22;4394;51.208;8.904;2023-04-24T06:06:31;9.70;99.90
8715;DHT22;4394;51.208;8.904;2023-04-24T06:09:20;9.60;99.90
8715;DHT22;4394;51.208;8.904;2023-04-24T06:12:09;9.50;99.90
8715;DHT22;4394;51.208;8.904;2023-04-24T06:14:57;9.60;99.90
8715;DHT22;4394;51.208;8.904;2023-04-24T06:17:45;9.70;99.90
8715;DHT22;4394;51.208;8.904;2023-04-24T06:20:34;9.70;99.90
8715;DHT22;4394;51.208;8.904;2023-04-24T06:23:22;9.80;99.90
8715;DHT22;4394;51.208;8.904;2023-04-24T06:26:12;9.80;99.90
8715;DHT22;4394;51.208;8.904;2023-04-24T06:29:00;9.80;99.90
8715;DHT22;4394;51.208;8.904;2023-04-24T06:31:49;9.80;99.90
8715;DHT22;4394;51.208;8.904;2023-04-24T06:34:37;9.90;99.90
8715;DHT22;4394;51.208;8.904;2023-04-24T06:37:26;9.90;99.90
8715;DHT22;4394;51.208;8.904;2023-04-24T06:40:14;9.90;99.90
8715;DHT22;4394;51.208;8.904;2023-04-24T06:43:06;9.90;99.90
8715;DHT22;4394;51.208;8.904;2023-04-24T06:45:54;9.90;99.90
8715;DHT22;4394;51.208;8.904;2023-04-24T06:48:43;9.90;99.90
8715;DHT22;4394;51.208;8.904;2023-04-24T06:51:32;9.90;99.90
8715;DHT22;4394;51.208;8.904;2023-04-24T06:54:20;9.90;99.90
8715;DHT22;4394;51.208;8.904;2023-04-24T06:57:08;10.00;99.90
8715;DHT22;4394;51.208;8.904;2023-04-24T06:59:59;10.10;99.90
8715;DHT22;4394;51.208;8.904;2023-04-24T07:02:47;10.10;99.90
8715;DHT22;4394;51.208;8.904;2023-04-24T07:05:37;10.10;99.90
8715;DHT22;4394;51.208;8.904;2023-04-24T07:08:25;10.20;99.90
8715;DHT22;4394;51.208;8.904;2023-04-24T07:11:13;10.20;99.90
8715;DHT22;4394;51.208;8.904;2023-04-24T07:14:02;10.10;99.90
8715;DHT22;4394;51.208;8.904;2023-04-24T07:16:52;10.10;99.90
8715;DHT22;4394;51.208;8.904;2023-04-24T07:19:41;10.10;99.90
8715;DHT22;4394;51.208;8.904;2023-04-24T07:22:30;10.20;99.90
8715;DHT22;4394;51.208;8.904;2023-04-24T07:25:19;10.30;99.90
8715;DHT22;4394;51.208;8.904;2023-04-24T07:28:07;10.40;99.90
8715;DHT22;4394;51.208;8.904;2023-04-24T07:30:56;10.40;99.90
8715;DHT22;4394;51.208;8.904;2023-04-24T07:33:46;10.40;99.90
8715;DHT22;4394;51.208;8.904;2023-04-24T07:36:35;10.50;99.90
8715;DHT22;4394;51.208;8.904;2023-04-24T07:39:25;10.60;99.90
8715;DHT22;4394;51.208;8.904;2023-04-24T07:42:13;10.70;99.90
8715;DHT22;4394;51.208;8.904;2023-04-24T07:45:02;10.80;99.90
8715;DHT22;4394;51.208;8.904;2023-04-24T07:47:50;10.90;99.90
8715;DHT22;4394;51.208;8.904;2023-04-24T07:50:40;11.00;99.90
8715;DHT22;4394;51.208;8.904;2023-04-24T07:53:29;11.10;99.90
8715;DHT22;4394;51.208;8.904;2023-04-24T07:56:17;11.00;99.90
8715;DHT22;4394;51.208;8.904;2023-04-24T07:59:06;11.10;99.90
8715;DHT22;4394;51.208;8.904;2023-04-24T08:01:54;11.10;99.90
8715;DHT22;4394;51.208;8.904;2023-04-24T08:04:43;11.10;99.90
8715;DHT22;4394;51.208;8.904;2023-04-24T08:07:34;11.00;99.90
8715;DHT22;4394;51.208;8.904;2023-04-24T08:10:23;11.00;99.90
8715;DHT22;4394;51.208;8.904;2023-04-24T08:13:11;11.00;99.90
8715;DHT22;4394;51.208;8.904;2023-04-24T08:16:00;11.00;99.90
8715;DHT22;4394;51.208;8.904;2023-04-24T08:18:49;10.80;99.90
8715;DHT22;4394;51.208;8.904;2023-04-24T08:21:37;10.60;99.90
8715;DHT22;4394;51.208;8.904;2023-04-24T08:24:27;10.60;99.90
8715;DHT22;4394;51.208;8.904;2023-04-24T08:27:15;10.60;99.90
8715;DHT22;4394;51.208;8.904;2023-04-24T08:30:04;10.60;99.90
8715;DHT22;4394;51.208;8.904;2023-04-24T08:32:53;10.60;99.90
8715;DHT22;4394;51.208;8.904;2023-04-24T08:35:41;10.60;99.90
8715;DHT22;4394;51.208;8.904;2023-04-24T08:38:30;10.60;99.90
8715;DHT22;4394;51.208;8.904;2023-04-24T08:41:19;10.60;99.90
8715;DHT22;4394;51.208;8.904;2023-04-24T08:44:09;10.60;99.90
8715;DHT22;4394;51.208;8.904;2023-04-24T08:46:58;10.70;99.90
8715;DHT22;4394;51.208;8.904;2023-04-24T08:49:48;10.80;99.90
8715;DHT22;4394;51.208;8.904;2023-04-24T08:52:37;10.90;99.90
8715;DHT22;4394;51.208;8.904;2023-04-24T08:55:25;11.00;99.90
8715;DHT22;4394;51.208;8.904;2023-04-24T08:58:16;11.10;99.90
8715;DHT22;4394;51.208;8.904;2023-04-24T09:01:05;11.10;99.90
8715;DHT22;4394;51.208;8.904;2023-04-24T09:03:54;11.20;99.90
8715;DHT22;4394;51.208;8.904;2023-04-24T09:06:44;11.20;99.90
8715;DHT22;4394;51.208;8.904;2023-04-24T09:09:33;11.20;99.90
8715;DHT22;4394;51.208;8.904;2023-04-24T09:12:22;11.20;99.90
8715;DHT22;4394;51.208;8.904;2023-04-24T09:15:12;11.20;99.90
8715;DHT22;4394;51.208;8.904;2023-04-24T09:18:01;11.20;99.90
8715;DHT22;4394;51.208;8.904;2023-04-24T09:20:59;11.20;99.90
8715;DHT22;4394;51.208;8.904;2023-04-24T09:23:58;11.20;99.90
8715;DHT22;4394;51.208;8.904;2023-04-24T09:26:47;11.20;99.90
8715;DHT22;4394;51.208;8.904;2023-04-24T09:29:35;11.20;99.90
8715;DHT22;4394;51.208;8.904;2023-04-24T09:32:25;11.30;99.90
8715;DHT22;4394;51.208;8.904;2023-04-24T09:35:15;11.30;99.90
8715;DHT22;4394;51.208;8.904;2023-04-24T09:38:03;11.30;99.90
8715;DHT22;4394;51.208;8.904;2023-04-24T09:40:52;11.30;99.90
8715;DHT22;4394;51.208;8.904;2023-04-24T09:43:40;11.30;99.90
8715;DHT22;4394;51.208;8.904;2023-04-24T09:46:33;11.30;99.90
8715;DHT22;4394;51.208;8.904;2023-04-24T09:49:24;11.20;99.90
8715;DHT22;4394;51.208;8.904;2023-04-24T09:52:13;11.10;99.90
8715;DHT22;4394;51.208;8.904;2023-04-24T09:55:11;11.10;99.90
8715;DHT22;4394;51.208;8.904;2023-04-24T09:58:00;10.90;99.90
8715;DHT22;4394;51.208;8.904;2023-04-24T10:00:53;10.80;99.90
8715;DHT22;4394;51.208;8.904;2023-04-24T10:03:42;10.80;99.90
8715;DHT22;4394;51.208;8.904;2023-04-24T10:06:34;10.80;99.90
8715;DHT22;4394;51.208;8.904;2023-04-24T10:09:24;10.70;99.90
8715;DHT22;4394;51.208;8.904;2023-04-24T10:12:13;10.70;99.90
8715;DHT22;4394;51.208;8.904;2023-04-24T10:15:02;10.50;99.90
8715;DHT22;4394;51.208;8.904;2023-04-24T10:17:53;10.40;99.90
8715;DHT22;4394;51.208;8.904;2023-04-24T10:20:41;10.20;99.90
8715;DHT22;4394;51.208;8.904;2023-04-24T10:23:32;10.30;99.90
8715;DHT22;4394;51.208;8.904;2023-04-24T10:26:20;10.30;99.90
8715;DHT22;4394;51.208;8.904;2023-04-24T10:29:10;10.30;99.90
8715;DHT22;4394;51.208;8.904;2023-04-24T10:31:59;10.30;99.90
8715;DHT22;4394;51.208;8.904;2023-04-24T10:34:48;10.30;99.90
8715;DHT22;4394;51.208;8.904;2023-04-24T10:37:38;10.30;99.90
8715;DHT22;4394;51.208;8.904;2023-04-24T10:40:30;10.20;99.90
8715;DHT22;4394;51.208;8.904;2023-04-24T10:43:19;10.10;99.90
8715;DHT22;4394;51.208;8.904;2023-04-24T10:46:08;10.10;99.90
8715;DHT22;4394;51.208;8.904;2023-04-24T10:48:57;10.10;99.90
8715;DHT22;4394;51.208;8.904;2023-04-24T10:51:47;10.30;99.90
8715;DHT22;4394;51.208;8.904;2023-04-24T10:54:40;10.30;99.90
8715;DHT22;4394;51.208;8.904;2023-04-24T10:57:30;10.10;99.90
8715;DHT22;4394;51.208;8.904;2023-04-24T11:00:21;9.90;99.90
8715;DHT22;4394;51.208;8.904;2023-04-24T11:03:23;9.90;99.90
8715;DHT22;4394;51.208;8.904;2023-04-24T11:06:12;9.90;99.90
8715;DHT22;4394;51.208;8.904;2023-04-24T11:09:05;9.80;99.90
8715;DHT22;4394;51.208;8.904;2023-04-24T11:12:03;9.70;99.90
8715;DHT22;4394;51.208;8.904;2023-04-24T11:15:01;9.70;99.90
8715;DHT22;4394;51.208;8.904;2023-04-24T11:17:55;9.70;99.90
8715;DHT22;4394;51.208;8.904;2023-04-24T11:20:45;9.60;99.90
8715;DHT22;4394;51.208;8.904;2023-04-24T11:23:36;9.50;99.90
8715;DHT22;4394;51.208;8.904;2023-04-24T11:26:25;9.60;99.90
8715;DHT22;4394;51.208;8.904;2023-04-24T11:29:20;9.60;99.90
8715;DHT22;4394;51.208;8.904;2023-04-24T11:32:23;9.70;99.90
8715;DHT22;4394;51.208;8.904;2023-04-24T11:35:14;9.80;99.90
8715;DHT22;4394;51.208;8.904;2023-04-24T11:38:03;9.90;99.90
8715;DHT22;4394;51.208;8.904;2023-04-24T11:40:55;10.00;99.90
8715;DHT22;4394;51.208;8.904;2023-04-24T11:43:45;10.00;99.90
8715;DHT22;4394;51.208;8.904;2023-04-24T11:46:35;10.00;99.90
8715;DHT22;4394;51.208;8.904;2023-04-24T11:49:27;10.00;99.90
8715;DHT22;4394;51.208;8.904;2023-04-24T11:52:16;10.10;99.90
8715;DHT22;4394;51.208;8.904;2023-04-24T11:55:07;9.80;99.90
8715;DHT22;4394;51.208;8.904;2023-04-24T11:57:57;9.70;99.90
8715;DHT22;4394;51.208;8.904;2023-04-24T12:00:46;9.70;99.90
8715;DHT22;4394;51.208;8.904;2023-04-24T12:03:48;9.80;99.90
8715;DHT22;4394;51.208;8.904;2023-04-24T12:06:39;9.80;99.90
8715;DHT22;4394;51.208;8.904;2023-04-24T12:09:28;9.80;99.90
8715;DHT22;4394;51.208;8.904;2023-04-24T12:12:17;9.60;99.90
8715;DHT22;4394;51.208;8.904;2023-04-24T12:15:08;9.60;99.90
8715;DHT22;4394;51.208;8.904;2023-04-24T12:17:57;9.60;99.90
8715;DHT22;4394;51.208;8.904;2023-04-24T12:20:45;9.50;99.90
8715;DHT22;4394;51.208;8.904;2023-04-24T12:23:37;9.60;99.90
8715;DHT22;4394;51.208;8.904;2023-04-24T12:26:27;9.60;99.90
8715;DHT22;4394;51.208;8.904;2023-04-24T12:29:19;9.70;99.90
8715;DHT22;4394;51.208;8.904;2023-04-24T12:32:15;9.60;99.90
8715;DHT22;4394;51.208;8.904;2023-04-24T12:35:05;9.60;99.90
8715;DHT22;4394;51.208;8.904;2023-04-24T12:37:54;9.60;99.90
8715;DHT22;4394;51.208;8.904;2023-04-24T12:40:43;9.60;99.90
8715;DHT22;4394;51.208;8.904;2023-04-24T12:43:32;9.60;99.90
8715;DHT22;4394;51.208;8.904;2023-04-24T12:46:20;9.80;99.90
8715;DHT22;4394;51.208;8.904;2023-04-24T12:49:09;9.80;99.90
8715;DHT22;4394;51.208;8.904;2023-04-24T12:51:57;9.80;99.90
8715;DHT22;4394;51.208;8.904;2023-04-24T12:54:45;9.80;99.90
8715;DHT22;4394;51.208;8.904;2023-04-24T12:57:36;9.70;99.90
8715;DHT22;4394;51.208;8.904;2023-04-24T13:00:25;9.90;99.90
8715;DHT22;4394;51.208;8.904;2023-04-24T13:03:14;10.00;99.90
8715;DHT22;4394;51.208;8.904;2023-04-24T13:06:02;10.00;99.90
8715;DHT22;4394;51.208;8.904;2023-04-24T13:08:51;10.00;99.90
8715;DHT22;4394;51.208;8.904;2023-04-24T13:11:39;9.90;99.90
8715;DHT22;4394;51.208;8.904;2023-04-24T13:14:28;9.80;99.90
8715;DHT22;4394;51.208;8.904;2023-04-24T13:17:17;9.70;99.90
8715;DHT22;4394;51.208;8.904;2023-04-24T13:20:06;9.70;99.90
8715;DHT22;4394;51.208;8.904;2023-04-24T13:22:55;9.70;99.90
8715;DHT22;4394;51.208;8.904;2023-04-24T13:25:43;9.60;99.90
8715;DHT22;4394;51.208;8.904;2023-04-24T13:28:31;9.50;99.90
8715;DHT22;4394;51.208;8.904;2023-04-24T13:31:21;9.50;99.90
8715;DHT22;4394;51.208;8.904;2023-04-24T13:34:09;9.50;99.90
8715;DHT22;4394;51.208;8.904;2023-04-24T13:36:58;9.50;99.90
8715;DHT22;4394;51.208;8.904;2023-04-24T13:39:46;9.50;99.90
8715;DHT22;4394;51.208;8.904;2023-04-24T13:42:35;9.40;99.90
8715;DHT22;4394;51.208;8.904;2023-04-24T13:45:23;9.40;99.90
8715;DHT22;4394;51.208;8.904;2023-04-24T13:48:13;9.40;99.90
8715;DHT22;4394;51.208;8.904;2023-04-24T13:51:02;9.30;99.90
8715;DHT22;4394;51.208;8.904;2023-04-24T13:53:51;9.30;99.90
8715;DHT22;4394;51.208;8.904;2023-04-24T13:56:39;9.20;99.90
8715;DHT22;4394;51.208;8.904;2023-04-24T13:59:27;9.30;99.90
8715;DHT22;4394;51.208;8.904;2023-04-24T14:02:16;9.40;99.90
8715;DHT22;4394;51.208;8.904;2023-04-24T14:05:06;9.60;99.90
8715;DHT22;4394;51.208;8.904;2023-04-24T14:07:55;9.70;99.90
8715;DHT22;4394;51.208;8.904;2023-04-24T14:10:43;9.90;99.90
8715;DHT22;4394;51.208;8.904;2023-04-24T14:13:31;9.90;99.90
8715;DHT22;4394;51.208;8.904;2023-04-24T14:16:19;9.90;99.90
8715;DHT22;4394;51.208;8.904;2023-04-24T14:19:08;9.90;99.90
8715;DHT22;4394;51.208;8.904;2023-04-24T14:21:58;9.90;99.90
8715;DHT22;4394;51.208;8.904;2023-04-24T14:24:46;9.80;99.90
8715;DHT22;4394;51.208;8.904;2023-04-24T14:27:35;9.80;99.90
8715;DHT22;4394;51.208;8.904;2023-04-24T14:30:23;9.70;99.90
8715;DHT22;4394;51.208;8.904;2023-04-24T14:33:11;9.70;99.90
8715;DHT22;4394;51.208;8.904;2023-04-24T14:36:00;9.80;99.90
8715;DHT22;4394;51.208;8.904;2023-04-24T14:38:51;9.80;99.90
8715;DHT22;4394;51.208;8.904;2023-04-24T14:41:39;9.80;99.90
8715;DHT22;4394;51.208;8.904;2023-04-24T14:44:27;9.80;99.90
8715;DHT22;4394;51.208;8.904;2023-04-24T14:47:15;9.80;99.90
8715;DHT22;4394;51.208;8.904;2023-04-24T14:50:08;9.80;99.90
8715;DHT22;4394;51.208;8.904;2023-04-24T14:52:57;9.90;99.90
8715;DHT22;4394;51.208;8.904;2023-04-24T14:55:46;10.00;99.90
8715;DHT22;4394;51.208;8.904;2023-04-24T14:58:35;10.20;99.90
8715;DHT22;4394;51.208;8.904;2023-04-24T15:01:23;10.30;99.90
8715;DHT22;4394;51.208;8.904;2023-04-24T15:04:12;10.20;99.90
8715;DHT22;4394;51.208;8.904;2023-04-24T15:07:00;10.20;99.90
8715;DHT22;4394;51.208;8.904;2023-04-24T15:09:49;10.00;99.90
8715;DHT22;4394;51.208;8.904;2023-04-24T15:12:38;9.90;99.90
8715;DHT22;4394;51.208;8.904;2023-04-24T15:15:27;9.80;99.90
8715;DHT22;4394;51.208;8.904;2023-04-24T15:18:15;9.90;99.90
8715;DHT22;4394;51.208;8.904;2023-04-24T15:21:03;10.00;99.90
8715;DHT22;4394;51.208;8.904;2023-04-24T15:23:52;10.10;99.90
8715;DHT22;4394;51.208;8.904;2023-04-24T15:26:40;10.10;99.90
8715;DHT22;4394;51.208;8.904;2023-04-24T15:29:30;10.00;99.90
8715;DHT22;4394;51.208;8.904;2023-04-24T15:32:18;10.10;99.90
8715;DHT22;4394;51.208;8.904;2023-04-24T15:35:07;10.20;99.90
8715;DHT22;4394;51.208;8.904;2023-04-24T15:37:56;10.40;99.90
8715;DHT22;4394;51.208;8.904;2023-04-24T15:40:44;10.60;99.90
8715;DHT22;4394;51.208;8.904;2023-04-24T15:43:32;10.80;99.90
8715;DHT22;4394;51.208;8.904;2023-04-24T15:46:23;10.80;99.90
8715;DHT22;4394;51.208;8.904;2023-04-24T15:49:11;10.80;99.90
8715;DHT22;4394;51.208;8.904;2023-04-24T15:51:59;10.80;99.90
8715;DHT22;4394;51.208;8.904;2023-04-24T15:54:47;10.90;99.90
8715;DHT22;4394;51.208;8.904;2023-04-24T15:57:36;10.80;99.90
8715;DHT22;4394;51.208;8.904;2023-04-24T16:00:24;10.80;99.90
8715;DHT22;4394;51.208;8.904;2023-04-24T16:03:16;10.70;99.90
8715;DHT22;4394;51.208;8.904;2023-04-24T16:06:05;10.50;99.90
8715;DHT22;4394;51.208;8.904;2023-04-24T16:08:53;10.40;99.90
8715;DHT22;4394;51.208;8.904;2023-04-24T16:11:45;10.40;99.90
8715;DHT22;4394;51.208;8.904;2023-04-24T16:14:33;10.40;99.90
8715;DHT22;4394;51.208;8.904;2023-04-24T16:17:22;10.40;99.90
8715;DHT22;4394;51.208;8.904;2023-04-24T16:20:12;10.20;99.90
8715;DHT22;4394;51.208;8.904;2023-04-24T16:23:01;10.00;99.90
8715;DHT22;4394;51.208;8.904;2023-04-24T16:25:50;9.90;99.90
8715;DHT22;4394;51.208;8.904;2023-04-24T16:28:38;9.80;99.90
8715;DHT22;4394;51.208;8.904;2023-04-24T16:31:26;9.80;99.90
8715;DHT22;4394;51.208;8.904;2023-04-24T16:34:14;9.90;99.90
8715;DHT22;4394;51.208;8.904;2023-04-24T16:37:04;10.00;99.90
8715;DHT22;4394;51.208;8.904;2023-04-24T16:39:53;10.10;99.90
8715;DHT22;4394;51.208;8.904;2023-04-24T16:42:41;10.30;99.90
8715;DHT22;4394;51.208;8.904;2023-04-24T16:45:30;10.40;99.90
8715;DHT22;4394;51.208;8.904;2023-04-24T16:48:18;10.50;99.90
8715;DHT22;4394;51.208;8.904;2023-04-24T16:51:06;10.50;99.90
8715;DHT22;4394;51.208;8.904;2023-04-24T16:53:56;10.50;99.90
8715;DHT22;4394;51.208;8.904;2023-04-24T16:56:44;10.50;99.90
8715;DHT22;4394;51.208;8.904;2023-04-24T16:59:32;10.40;99.90
8715;DHT22;4394;51.208;8.904;2023-04-24T17:02:21;10.50;99.90
8715;DHT22;4394;51.208;8.904;2023-04-24T17:05:11;10.60;99.90
8715;DHT22;4394;51.208;8.904;2023-04-24T17:07:59;10.80;99.90
8715;DHT22;4394;51.208;8.904;2023-04-24T17:10:50;11.00;99.90
8715;DHT22;4394;51.208;8.904;2023-04-24T17:13:38;11.20;99.90
8715;DHT22;4394;51.208;8.904;2023-04-24T17:16:26;11.30;99.90
8715;DHT22;4394;51.208;8.904;2023-04-24T17:19:16;11.30;99.90
8715;DHT22;4394;51.208;8.904;2023-04-24T17:22:04;11.30;99.90
8715;DHT22;4394;51.208;8.904;2023-04-24T17:24:53;11.40;99.90
8715;DHT22;4394;51.208;8.904;2023-04-24T17:27:43;11.50;99.90
8715;DHT22;4394;51.208;8.904;2023-04-24T17:30:31;11.70;99.90
8715;DHT22;4394;51.208;8.904;2023-04-24T17:33:20;11.80;99.90
8715;DHT22;4394;51.208;8.904;2023-04-24T17:36:09;11.90;99.90
8715;DHT22;4394;51.208;8.904;2023-04-24T17:38:57;12.00;99.90
8715;DHT22;4394;51.208;8.904;2023-04-24T17:41:45;12.10;99.90
8715;DHT22;4394;51.208;8.904;2023-04-24T17:44:35;12.00;99.90
8715;DHT22;4394;51.208;8.904;2023-04-24T17:47:23;12.00;99.90
8715;DHT22;4394;51.208;8.904;2023-04-24T17:50:13;12.00;99.90
8715;DHT22;4394;51.208;8.904;2023-04-24T17:53:01;11.70;99.90
8715;DHT22;4394;51.208;8.904;2023-04-24T17:55:50;11.50;99.90
8715;DHT22;4394;51.208;8.904;2023-04-24T17:58:40;11.30;99.90
8715;DHT22;4394;51.208;8.904;2023-04-24T18:01:30;11.30;99.90
8715;DHT22;4394;51.208;8.904;2023-04-24T18:04:19;11.20;99.90
8715;DHT22;4394;51.208;8.904;2023-04-24T18:07:07;11.10;99.90
8715;DHT22;4394;51.208;8.904;2023-04-24T18:09:56;11.00;99.90
8715;DHT22;4394;51.208;8.904;2023-04-24T18:12:44;10.90;99.90
8715;DHT22;4394;51.208;8.904;2023-04-24T18:15:33;10.80;99.90
8715;DHT22;4394;51.208;8.904;2023-04-24T18:18:23;10.60;99.90
8715;DHT22;4394;51.208;8.904;2023-04-24T18:21:12;10.50;99.90
8715;DHT22;4394;51.208;8.904;2023-04-24T18:24:00;10.40;99.90
8715;DHT22;4394;51.208;8.904;2023-04-24T18:26:49;10.30;99.90
8715;DHT22;4394;51.208;8.904;2023-04-24T18:29:37;10.30;99.90